sensor_id;sensor_type;location;lat;lon;timestamp;P1;durP1;ratioP1;P2;durP2;ratioP2
70850;SDS011;58475;49.662;9.636;2022-09-06T00:02:29;5.45;;;3.15;;
70850;SDS011;58475;49.662;9.636;2022-09-06T00:04:58;6.25;;;3.10;;
70850;SDS011;58475;49.662;9.636;2022-09-06T00:07:24;5.40;;;3.08;;
70850;SDS011;58475;49.662;9.636;2022-09-06T00:09:49;4.95;;;2.95;;
70850;SDS011;58475;49.662;9.636;2022-09-06T00:12:14;6.07;;;2.92;;
70850;SDS011;58475;49.662;9.636;2022-09-06T00:14:40;5.00;;;3.00;;
70850;SDS011;58475;49.662;9.636;2022-09-06T00:17:05;5.30;;;3.03;;
70850;SDS011;58475;49.662;9.636;2022-09-06T00:19:30;6.60;;;3.08;;
70850;SDS011;58475;49.662;9.636;2022-09-06T00:21:56;5.50;;;3.03;;
70850;SDS011;58475;49.662;9.636;2022-09-06T00:24:21;5.20;;;3.03;;
70850;SDS011;58475;49.662;9.636;2022-09-06T00:26:47;7.55;;;3.50;;
70850;SDS011;58475;49.662;9.636;2022-09-06T00:29:12;6.47;;;3.40;;
70850;SDS011;58475;49.662;9.636;2022-09-06T00:31:37;5.78;;;3.28;;
70850;SDS011;58475;49.662;9.636;2022-09-06T00:34:03;5.53;;;3.13;;
70850;SDS011;58475;49.662;9.636;2022-09-06T00:36:28;5.70;;;3.33;;
70850;SDS011;58475;49.662;9.636;2022-09-06T00:38:53;7.03;;;3.38;;
70850;SDS011;58475;49.662;9.636;2022-09-06T00:41:19;5.57;;;3.05;;
70850;SDS011;58475;49.662;9.636;2022-09-06T00:43:44;5.65;;;3.13;;
70850;SDS011;58475;49.662;9.636;2022-09-06T00:46:12;5.65;;;3.05;;
70850;SDS011;58475;49.662;9.636;2022-09-06T00:48:40;6.65;;;3.53;;
70850;SDS011;58475;49.662;9.636;2022-09-06T00:51:08;8.50;;;3.55;;
70850;SDS011;58475;49.662;9.636;2022-09-06T00:53:35;5.07;;;3.10;;
70850;SDS011;58475;49.662;9.636;2022-09-06T00:56:01;6.80;;;3.10;;
70850;SDS011;58475;49.662;9.636;2022-09-06T00:58:27;5.22;;;2.85;;
70850;SDS011;58475;49.662;9.636;2022-09-06T01:00:52;4.78;;;3.00;;
70850;SDS011;58475;49.662;9.636;2022-09-06T01:03:18;5.97;;;3.00;;
70850;SDS011;58475;49.662;9.636;2022-09-06T01:11:37;9.50;;;3.30;;
70850;SDS011;58475;49.662;9.636;2022-09-06T01:14:09;5.90;;;3.17;;
70850;SDS011;58475;49.662;9.636;2022-09-06T01:16:54;8.82;;;3.10;;
70850;SDS011;58475;49.662;9.636;2022-09-06T01:25:53;6.03;;;3.58;;
70850;SDS011;58475;49.662;9.636;2022-09-06T01:28:44;5.45;;;3.25;;
70850;SDS011;58475;49.662;9.636;2022-09-06T01:36:41;5.10;;;3.08;;
70850;SDS011;58475;49.662;9.636;2022-09-06T01:39:46;6.38;;;3.08;;
70850;SDS011;58475;49.662;9.636;2022-09-06T01:44:31;6.15;;;3.83;;
70850;SDS011;58475;49.662;9.636;2022-09-06T01:47:08;7.60;;;3.20;;
70850;SDS011;58475;49.662;9.636;2022-09-06T02:00:54;5.10;;;3.00;;
70850;SDS011;58475;49.662;9.636;2022-09-06T02:03:28;5.10;;;3.03;;
70850;SDS011;58475;49.662;9.636;2022-09-06T02:06:08;5.47;;;3.28;;
70850;SDS011;58475;49.662;9.636;2022-09-06T02:08:48;6.65;;;3.10;;
70850;SDS011;58475;49.662;9.636;2022-09-06T02:11:19;5.57;;;3.40;;
70850;SDS011;58475;49.662;9.636;2022-09-06T02:13:51;6.32;;;3.42;;
70850;SDS011;58475;49.662;9.636;2022-09-06T02:16:22;8.10;;;3.25;;
70850;SDS011;58475;49.662;9.636;2022-09-06T02:19:02;5.40;;;3.30;;
70850;SDS011;58475;49.662;9.636;2022-09-06T02:21:37;6.40;;;3.55;;
70850;SDS011;58475;49.662;9.636;2022-09-06T02:24:07;5.30;;;3.10;;
70850;SDS011;58475;49.662;9.636;2022-09-06T02:26:36;5.75;;;3.28;;
70850;SDS011;58475;49.662;9.636;2022-09-06T02:29:07;6.18;;;3.20;;
70850;SDS011;58475;49.662;9.636;2022-09-06T02:31:37;6.55;;;3.40;;
70850;SDS011;58475;49.662;9.636;2022-09-06T02:34:07;6.70;;;3.60;;
70850;SDS011;58475;49.662;9.636;2022-09-06T02:36:34;10.45;;;3.42;;
70850;SDS011;58475;49.662;9.636;2022-09-06T02:39:01;5.28;;;3.10;;
70850;SDS011;58475;49.662;9.636;2022-09-06T02:41:26;6.68;;;3.92;;
70850;SDS011;58475;49.662;9.636;2022-09-06T02:43:53;5.03;;;3.05;;
70850;SDS011;58475;49.662;9.636;2022-09-06T02:46:18;6.35;;;3.30;;
70850;SDS011;58475;49.662;9.636;2022-09-06T02:48:44;5.38;;;2.80;;
70850;SDS011;58475;49.662;9.636;2022-09-06T02:51:10;5.68;;;3.30;;
70850;SDS011;58475;49.662;9.636;2022-09-06T02:53:36;6.10;;;3.28;;
70850;SDS011;58475;49.662;9.636;2022-09-06T02:56:01;6.40;;;3.40;;
70850;SDS011;58475;49.662;9.636;2022-09-06T02:58:27;6.00;;;3.42;;
70850;SDS011;58475;49.662;9.636;2022-09-06T03:00:52;5.15;;;3.22;;
70850;SDS011;58475;49.662;9.636;2022-09-06T03:03:18;5.63;;;3.20;;
70850;SDS011;58475;49.662;9.636;2022-09-06T03:05:45;7.13;;;3.35;;
70850;SDS011;58475;49.662;9.636;2022-09-06T03:08:14;7.38;;;4.00;;
70850;SDS011;58475;49.662;9.636;2022-09-06T03:10:40;6.78;;;3.50;;
70850;SDS011;58475;49.662;9.636;2022-09-06T03:13:06;7.05;;;3.47;;
70850;SDS011;58475;49.662;9.636;2022-09-06T03:15:31;5.78;;;3.65;;
70850;SDS011;58475;49.662;9.636;2022-09-06T03:17:57;6.53;;;3.47;;
70850;SDS011;58475;49.662;9.636;2022-09-06T03:20:23;7.03;;;3.50;;
70850;SDS011;58475;49.662;9.636;2022-09-06T03:22:49;5.53;;;3.53;;
70850;SDS011;58475;49.662;9.636;2022-09-06T03:25:14;7.43;;;3.60;;
70850;SDS011;58475;49.662;9.636;2022-09-06T03:27:40;9.23;;;3.53;;
70850;SDS011;58475;49.662;9.636;2022-09-06T03:30:07;8.57;;;3.90;;
70850;SDS011;58475;49.662;9.636;2022-09-06T03:32:33;8.07;;;3.20;;
70850;SDS011;58475;49.662;9.636;2022-09-06T03:34:58;7.50;;;3.45;;
70850;SDS011;58475;49.662;9.636;2022-09-06T03:37:24;8.82;;;3.75;;
70850;SDS011;58475;49.662;9.636;2022-09-06T03:39:49;9.77;;;3.58;;
70850;SDS011;58475;49.662;9.636;2022-09-06T03:42:14;8.98;;;3.42;;
70850;SDS011;58475;49.662;9.636;2022-09-06T03:44:40;6.45;;;3.38;;
70850;SDS011;58475;49.662;9.636;2022-09-06T03:47:05;7.22;;;3.33;;
70850;SDS011;58475;49.662;9.636;2022-09-06T03:49:30;7.82;;;3.60;;
70850;SDS011;58475;49.662;9.636;2022-09-06T03:51:56;6.55;;;3.50;;
70850;SDS011;58475;49.662;9.636;2022-09-06T03:54:21;8.23;;;3.47;;
70850;SDS011;58475;49.662;9.636;2022-09-06T03:56:48;6.45;;;3.50;;
70850;SDS011;58475;49.662;9.636;2022-09-06T03:59:13;8.88;;;3.83;;
70850;SDS011;58475;49.662;9.636;2022-09-06T04:01:39;7.60;;;3.80;;
70850;SDS011;58475;49.662;9.636;2022-09-06T04:04:04;8.57;;;3.70;;
70850;SDS011;58475;49.662;9.636;2022-09-06T04:06:30;9.00;;;4.00;;
70850;SDS011;58475;49.662;9.636;2022-09-06T04:08:55;6.68;;;3.60;;
70850;SDS011;58475;49.662;9.636;2022-09-06T04:11:20;5.35;;;3.10;;
70850;SDS011;58475;49.662;9.636;2022-09-06T04:13:46;7.18;;;3.60;;
70850;SDS011;58475;49.662;9.636;2022-09-06T04:16:11;5.97;;;3.55;;
70850;SDS011;58475;49.662;9.636;2022-09-06T04:18:36;7.20;;;3.50;;
70850;SDS011;58475;49.662;9.636;2022-09-06T04:21:03;9.18;;;3.72;;
70850;SDS011;58475;49.662;9.636;2022-09-06T04:23:28;7.03;;;3.70;;
70850;SDS011;58475;49.662;9.636;2022-09-06T04:25:55;6.80;;;4.15;;
70850;SDS011;58475;49.662;9.636;2022-09-06T04:28:21;6.82;;;3.60;;
70850;SDS011;58475;49.662;9.636;2022-09-06T04:30:51;8.73;;;3.75;;
70850;SDS011;58475;49.662;9.636;2022-09-06T04:33:18;6.22;;;3.85;;
70850;SDS011;58475;49.662;9.636;2022-09-06T04:35:51;7.90;;;3.70;;
70850;SDS011;58475;49.662;9.636;2022-09-06T04:38:21;5.80;;;3.60;;
70850;SDS011;58475;49.662;9.636;2022-09-06T04:40:58;6.97;;;3.78;;
70850;SDS011;58475;49.662;9.636;2022-09-06T04:43:24;7.45;;;3.47;;
70850;SDS011;58475;49.662;9.636;2022-09-06T04:45:49;6.60;;;3.70;;
70850;SDS011;58475;49.662;9.636;2022-09-06T04:48:15;7.28;;;3.92;;
70850;SDS011;58475;49.662;9.636;2022-09-06T04:50:40;6.40;;;3.70;;
70850;SDS011;58475;49.662;9.636;2022-09-06T04:53:06;7.78;;;3.40;;
70850;SDS011;58475;49.662;9.636;2022-09-06T04:55:32;7.55;;;3.83;;
70850;SDS011;58475;49.662;9.636;2022-09-06T04:57:58;8.00;;;4.40;;
70850;SDS011;58475;49.662;9.636;2022-09-06T05:00:25;8.25;;;3.60;;
70850;SDS011;58475;49.662;9.636;2022-09-06T05:02:51;6.55;;;3.63;;
70850;SDS011;58475;49.662;9.636;2022-09-06T05:05:16;7.85;;;4.00;;
70850;SDS011;58475;49.662;9.636;2022-09-06T05:07:41;6.90;;;3.60;;
70850;SDS011;58475;49.662;9.636;2022-09-06T05:10:07;7.15;;;3.45;;
70850;SDS011;58475;49.662;9.636;2022-09-06T05:12:32;6.07;;;3.60;;
70850;SDS011;58475;49.662;9.636;2022-09-06T05:14:58;6.93;;;3.50;;
70850;SDS011;58475;49.662;9.636;2022-09-06T05:17:23;9.60;;;3.67;;
70850;SDS011;58475;49.662;9.636;2022-09-06T05:19:48;7.60;;;3.78;;
70850;SDS011;58475;49.662;9.636;2022-09-06T05:22:14;6.00;;;3.38;;
70850;SDS011;58475;49.662;9.636;2022-09-06T05:24:39;7.75;;;3.85;;
70850;SDS011;58475;49.662;9.636;2022-09-06T05:27:04;6.85;;;3.83;;
70850;SDS011;58475;49.662;9.636;2022-09-06T05:29:31;7.50;;;3.83;;
70850;SDS011;58475;49.662;9.636;2022-09-06T05:31:57;5.90;;;3.60;;
70850;SDS011;58475;49.662;9.636;2022-09-06T05:34:23;7.85;;;3.60;;
70850;SDS011;58475;49.662;9.636;2022-09-06T05:36:48;6.53;;;4.00;;
70850;SDS011;58475;49.662;9.636;2022-09-06T05:39:14;5.65;;;3.80;;
70850;SDS011;58475;49.662;9.636;2022-09-06T05:41:39;9.73;;;4.00;;
70850;SDS011;58475;49.662;9.636;2022-09-06T05:44:05;6.07;;;3.90;;
70850;SDS011;58475;49.662;9.636;2022-09-06T05:46:30;7.15;;;3.63;;
70850;SDS011;58475;49.662;9.636;2022-09-06T05:48:56;5.88;;;3.97;;
70850;SDS011;58475;49.662;9.636;2022-09-06T05:51:25;7.32;;;3.20;;
70850;SDS011;58475;49.662;9.636;2022-09-06T05:53:50;5.93;;;3.60;;
70850;SDS011;58475;49.662;9.636;2022-09-06T05:56:17;6.45;;;3.78;;
70850;SDS011;58475;49.662;9.636;2022-09-06T05:58:43;8.63;;;4.28;;
70850;SDS011;58475;49.662;9.636;2022-09-06T06:01:21;7.45;;;4.18;;
70850;SDS011;58475;49.662;9.636;2022-09-06T06:03:51;7.03;;;3.67;;
70850;SDS011;58475;49.662;9.636;2022-09-06T06:06:21;7.35;;;3.67;;
70850;SDS011;58475;49.662;9.636;2022-09-06T06:08:48;6.38;;;3.97;;
70850;SDS011;58475;49.662;9.636;2022-09-06T06:11:13;7.10;;;3.90;;
70850;SDS011;58475;49.662;9.636;2022-09-06T06:13:39;7.70;;;3.95;;
70850;SDS011;58475;49.662;9.636;2022-09-06T06:16:06;8.88;;;3.85;;
70850;SDS011;58475;49.662;9.636;2022-09-06T06:18:32;6.80;;;3.80;;
70850;SDS011;58475;49.662;9.636;2022-09-06T06:23:32;6.20;;;3.50;;
70850;SDS011;58475;49.662;9.636;2022-09-06T06:25:58;7.97;;;3.97;;
70850;SDS011;58475;49.662;9.636;2022-09-06T06:28:23;7.03;;;3.55;;
70850;SDS011;58475;49.662;9.636;2022-09-06T06:30:48;7.38;;;4.03;;
70850;SDS011;58475;49.662;9.636;2022-09-06T06:33:14;5.88;;;3.85;;
70850;SDS011;58475;49.662;9.636;2022-09-06T06:35:39;6.15;;;3.53;;
70850;SDS011;58475;49.662;9.636;2022-09-06T06:38:04;6.65;;;3.65;;
70850;SDS011;58475;49.662;9.636;2022-09-06T06:40:30;8.18;;;3.50;;
70850;SDS011;58475;49.662;9.636;2022-09-06T06:42:55;8.82;;;3.38;;
70850;SDS011;58475;49.662;9.636;2022-09-06T06:45:20;6.70;;;3.80;;
70850;SDS011;58475;49.662;9.636;2022-09-06T06:47:48;5.78;;;3.38;;
70850;SDS011;58475;49.662;9.636;2022-09-06T06:50:14;7.25;;;3.97;;
70850;SDS011;58475;49.662;9.636;2022-09-06T06:52:39;8.43;;;3.85;;
70850;SDS011;58475;49.662;9.636;2022-09-06T06:55:05;5.90;;;3.55;;
70850;SDS011;58475;49.662;9.636;2022-09-06T06:57:30;6.18;;;3.80;;
70850;SDS011;58475;49.662;9.636;2022-09-06T06:59:56;6.47;;;3.40;;
70850;SDS011;58475;49.662;9.636;2022-09-06T07:02:21;7.93;;;3.83;;
70850;SDS011;58475;49.662;9.636;2022-09-06T07:04:46;9.23;;;3.60;;
70850;SDS011;58475;49.662;9.636;2022-09-06T07:07:12;6.30;;;3.70;;
70850;SDS011;58475;49.662;9.636;2022-09-06T07:09:37;7.60;;;3.88;;
70850;SDS011;58475;49.662;9.636;2022-09-06T07:12:03;8.00;;;3.63;;
70850;SDS011;58475;49.662;9.636;2022-09-06T07:14:28;6.20;;;3.50;;
70850;SDS011;58475;49.662;9.636;2022-09-06T07:16:54;6.68;;;3.63;;
70850;SDS011;58475;49.662;9.636;2022-09-06T07:19:22;5.90;;;3.55;;
70850;SDS011;58475;49.662;9.636;2022-09-06T07:21:48;5.68;;;3.42;;
70850;SDS011;58475;49.662;9.636;2022-09-06T07:24:13;7.75;;;3.65;;
70850;SDS011;58475;49.662;9.636;2022-09-06T07:26:38;6.35;;;3.30;;
70850;SDS011;58475;49.662;9.636;2022-09-06T07:29:04;8.32;;;3.80;;
70850;SDS011;58475;49.662;9.636;2022-09-06T07:31:31;6.00;;;3.80;;
70850;SDS011;58475;49.662;9.636;2022-09-06T07:33:57;5.85;;;3.83;;
70850;SDS011;58475;49.662;9.636;2022-09-06T07:36:22;6.50;;;3.55;;
70850;SDS011;58475;49.662;9.636;2022-09-06T07:38:48;6.40;;;3.60;;
70850;SDS011;58475;49.662;9.636;2022-09-06T07:41:14;7.40;;;3.72;;
70850;SDS011;58475;49.662;9.636;2022-09-06T07:43:42;8.15;;;3.50;;
70850;SDS011;58475;49.662;9.636;2022-09-06T07:46:08;5.80;;;3.72;;
70850;SDS011;58475;49.662;9.636;2022-09-06T07:48:35;6.07;;;3.40;;
70850;SDS011;58475;49.662;9.636;2022-09-06T07:51:08;6.22;;;3.40;;
70850;SDS011;58475;49.662;9.636;2022-09-06T07:53:37;5.30;;;3.10;;
70850;SDS011;58475;49.662;9.636;2022-09-06T07:56:05;6.72;;;3.45;;
70850;SDS011;58475;49.662;9.636;2022-09-06T07:58:32;5.90;;;3.72;;
70850;SDS011;58475;49.662;9.636;2022-09-06T08:03:42;6.30;;;3.50;;
70850;SDS011;58475;49.662;9.636;2022-09-06T08:06:08;5.25;;;3.20;;
70850;SDS011;58475;49.662;9.636;2022-09-06T08:08:33;7.78;;;3.42;;
70850;SDS011;58475;49.662;9.636;2022-09-06T08:10:59;6.47;;;3.22;;
70850;SDS011;58475;49.662;9.636;2022-09-06T08:13:24;6.22;;;3.40;;
70850;SDS011;58475;49.662;9.636;2022-09-06T08:15:56;5.10;;;3.00;;
70850;SDS011;58475;49.662;9.636;2022-09-06T08:18:29;6.20;;;3.20;;
70850;SDS011;58475;49.662;9.636;2022-09-06T08:20:54;5.03;;;2.90;;
70850;SDS011;58475;49.662;9.636;2022-09-06T08:23:20;6.82;;;3.33;;
70850;SDS011;58475;49.662;9.636;2022-09-06T08:25:58;7.05;;;3.33;;
70850;SDS011;58475;49.662;9.636;2022-09-06T08:28:23;6.85;;;3.30;;
70850;SDS011;58475;49.662;9.636;2022-09-06T08:30:49;7.68;;;3.15;;
70850;SDS011;58475;49.662;9.636;2022-09-06T08:33:14;4.97;;;3.00;;
70850;SDS011;58475;49.662;9.636;2022-09-06T08:35:41;4.97;;;3.00;;
70850;SDS011;58475;49.662;9.636;2022-09-06T08:38:07;9.25;;;3.03;;
70850;SDS011;58475;49.662;9.636;2022-09-06T08:40:32;5.80;;;2.97;;
70850;SDS011;58475;49.662;9.636;2022-09-06T08:42:58;5.30;;;3.10;;
70850;SDS011;58475;49.662;9.636;2022-09-06T08:45:23;6.53;;;3.10;;
70850;SDS011;58475;49.662;9.636;2022-09-06T08:47:49;8.20;;;3.10;;
70850;SDS011;58475;49.662;9.636;2022-09-06T08:50:16;6.05;;;3.25;;
70850;SDS011;58475;49.662;9.636;2022-09-06T08:52:48;8.15;;;3.30;;
70850;SDS011;58475;49.662;9.636;2022-09-06T09:00:54;8.30;;;2.90;;
70850;SDS011;58475;49.662;9.636;2022-09-06T09:03:31;5.78;;;2.80;;
70850;SDS011;58475;49.662;9.636;2022-09-06T09:06:00;6.68;;;3.00;;
70850;SDS011;58475;49.662;9.636;2022-09-06T09:11:17;7.05;;;3.28;;
70850;SDS011;58475;49.662;9.636;2022-09-06T09:16:15;6.10;;;2.90;;
70850;SDS011;58475;49.662;9.636;2022-09-06T09:18:42;5.38;;;2.70;;
70850;SDS011;58475;49.662;9.636;2022-09-06T09:21:10;8.68;;;2.90;;
70850;SDS011;58475;49.662;9.636;2022-09-06T09:23:36;6.45;;;2.80;;
70850;SDS011;58475;49.662;9.636;2022-09-06T09:26:03;5.93;;;2.75;;
70850;SDS011;58475;49.662;9.636;2022-09-06T09:28:32;5.15;;;2.80;;
70850;SDS011;58475;49.662;9.636;2022-09-06T09:30:57;6.85;;;3.20;;
70850;SDS011;58475;49.662;9.636;2022-09-06T09:33:27;4.82;;;2.55;;
70850;SDS011;58475;49.662;9.636;2022-09-06T09:35:53;4.20;;;2.70;;
70850;SDS011;58475;49.662;9.636;2022-09-06T09:38:25;5.75;;;2.90;;
70850;SDS011;58475;49.662;9.636;2022-09-06T09:40:54;4.30;;;2.67;;
70850;SDS011;58475;49.662;9.636;2022-09-06T09:44:15;10.90;;;2.80;;
70850;SDS011;58475;49.662;9.636;2022-09-06T09:52:05;5.75;;;2.80;;
70850;SDS011;58475;49.662;9.636;2022-09-06T09:54:35;4.13;;;2.40;;
70850;SDS011;58475;49.662;9.636;2022-09-06T09:57:06;4.45;;;2.50;;
70850;SDS011;58475;49.662;9.636;2022-09-06T09:59:40;6.32;;;2.97;;
70850;SDS011;58475;49.662;9.636;2022-09-06T10:04:52;4.53;;;2.47;;
70850;SDS011;58475;49.662;9.636;2022-09-06T10:07:23;5.13;;;2.40;;
70850;SDS011;58475;49.662;9.636;2022-09-06T10:09:59;6.22;;;2.72;;
70850;SDS011;58475;49.662;9.636;2022-09-06T10:12:35;5.05;;;2.42;;
70850;SDS011;58475;49.662;9.636;2022-09-06T10:15:06;5.75;;;2.63;;
70850;SDS011;58475;49.662;9.636;2022-09-06T10:17:34;4.60;;;2.50;;
70850;SDS011;58475;49.662;9.636;2022-09-06T10:20:14;4.88;;;2.60;;
70850;SDS011;58475;49.662;9.636;2022-09-06T10:27:31;5.00;;;2.70;;
70850;SDS011;58475;49.662;9.636;2022-09-06T10:30:04;5.82;;;2.60;;
70850;SDS011;58475;49.662;9.636;2022-09-06T10:37:48;5.90;;;2.63;;
70850;SDS011;58475;49.662;9.636;2022-09-06T10:40:25;5.60;;;3.15;;
70850;SDS011;58475;49.662;9.636;2022-09-06T10:42:58;5.10;;;2.50;;
70850;SDS011;58475;49.662;9.636;2022-09-06T10:48:18;4.55;;;2.40;;
70850;SDS011;58475;49.662;9.636;2022-09-06T10:53:12;6.47;;;2.65;;
70850;SDS011;58475;49.662;9.636;2022-09-06T10:56:12;6.15;;;2.80;;
70850;SDS011;58475;49.662;9.636;2022-09-06T10:58:44;5.47;;;2.75;;
70850;SDS011;58475;49.662;9.636;2022-09-06T11:01:47;5.65;;;2.53;;
70850;SDS011;58475;49.662;9.636;2022-09-06T11:04:26;5.97;;;2.63;;
70850;SDS011;58475;49.662;9.636;2022-09-06T11:06:58;7.22;;;2.55;;
70850;SDS011;58475;49.662;9.636;2022-09-06T11:12:00;4.45;;;2.40;;
70850;SDS011;58475;49.662;9.636;2022-09-06T11:14:48;6.95;;;2.35;;
70850;SDS011;58475;49.662;9.636;2022-09-06T11:17:19;10.45;;;2.97;;
70850;SDS011;58475;49.662;9.636;2022-09-06T11:20:05;6.13;;;2.58;;
70850;SDS011;58475;49.662;9.636;2022-09-06T11:28:05;4.70;;;2.30;;
70850;SDS011;58475;49.662;9.636;2022-09-06T11:30:35;3.55;;;2.30;;
70850;SDS011;58475;49.662;9.636;2022-09-06T11:33:16;5.47;;;2.78;;
70850;SDS011;58475;49.662;9.636;2022-09-06T11:35:48;5.38;;;2.80;;
70850;SDS011;58475;49.662;9.636;2022-09-06T11:38:18;7.68;;;2.50;;
70850;SDS011;58475;49.662;9.636;2022-09-06T11:40:48;5.53;;;2.70;;
70850;SDS011;58475;49.662;9.636;2022-09-06T11:49:02;3.55;;;2.20;;
70850;SDS011;58475;49.662;9.636;2022-09-06T11:51:44;3.72;;;2.00;;
70850;SDS011;58475;49.662;9.636;2022-09-06T11:56:40;4.18;;;2.20;;
70850;SDS011;58475;49.662;9.636;2022-09-06T12:04:20;5.18;;;2.25;;
70850;SDS011;58475;49.662;9.636;2022-09-06T12:12:04;4.00;;;1.95;;
70850;SDS011;58475;49.662;9.636;2022-09-06T12:14:37;3.60;;;1.98;;
70850;SDS011;58475;49.662;9.636;2022-09-06T12:24:51;3.67;;;1.95;;
70850;SDS011;58475;49.662;9.636;2022-09-06T12:29:54;3.50;;;1.90;;
70850;SDS011;58475;49.662;9.636;2022-09-06T12:32:27;2.88;;;1.70;;
70850;SDS011;58475;49.662;9.636;2022-09-06T12:34:55;4.03;;;2.03;;
70850;SDS011;58475;49.662;9.636;2022-09-06T12:37:29;5.13;;;2.13;;
70850;SDS011;58475;49.662;9.636;2022-09-06T12:40:12;3.97;;;2.00;;
70850;SDS011;58475;49.662;9.636;2022-09-06T12:42:38;5.03;;;1.92;;
70850;SDS011;58475;49.662;9.636;2022-09-06T12:45:05;3.08;;;1.85;;
70850;SDS011;58475;49.662;9.636;2022-09-06T12:47:33;2.80;;;1.85;;
70850;SDS011;58475;49.662;9.636;2022-09-06T12:52:41;3.25;;;1.67;;
70850;SDS011;58475;49.662;9.636;2022-09-06T12:55:18;4.53;;;1.77;;
70850;SDS011;58475;49.662;9.636;2022-09-06T12:57:48;4.68;;;1.65;;
70850;SDS011;58475;49.662;9.636;2022-09-06T13:00:22;3.33;;;1.77;;
70850;SDS011;58475;49.662;9.636;2022-09-06T13:02:54;3.45;;;1.90;;
70850;SDS011;58475;49.662;9.636;2022-09-06T13:05:29;4.30;;;2.15;;
70850;SDS011;58475;49.662;9.636;2022-09-06T13:07:57;10.63;;;2.25;;
70850;SDS011;58475;49.662;9.636;2022-09-06T13:10:26;5.13;;;1.90;;
70850;SDS011;58475;49.662;9.636;2022-09-06T13:12:53;4.65;;;1.80;;
70850;SDS011;58475;49.662;9.636;2022-09-06T13:15:22;3.10;;;1.63;;
70850;SDS011;58475;49.662;9.636;2022-09-06T13:17:49;4.75;;;1.80;;
70850;SDS011;58475;49.662;9.636;2022-09-06T13:20:28;2.60;;;1.70;;
70850;SDS011;58475;49.662;9.636;2022-09-06T13:23:04;3.78;;;1.73;;
70850;SDS011;58475;49.662;9.636;2022-09-06T13:25:33;4.25;;;1.70;;
70850;SDS011;58475;49.662;9.636;2022-09-06T13:28:09;2.97;;;1.73;;
70850;SDS011;58475;49.662;9.636;2022-09-06T13:30:36;2.78;;;1.77;;
70850;SDS011;58475;49.662;9.636;2022-09-06T13:33:06;4.55;;;2.00;;
70850;SDS011;58475;49.662;9.636;2022-09-06T13:35:33;3.45;;;1.80;;
70850;SDS011;58475;49.662;9.636;2022-09-06T13:40:56;3.42;;;1.70;;
70850;SDS011;58475;49.662;9.636;2022-09-06T13:43:23;4.53;;;1.90;;
70850;SDS011;58475;49.662;9.636;2022-09-06T13:46:03;3.75;;;1.90;;
70850;SDS011;58475;49.662;9.636;2022-09-06T13:50:55;6.55;;;2.20;;
70850;SDS011;58475;49.662;9.636;2022-09-06T13:53:20;2.92;;;1.70;;
70850;SDS011;58475;49.662;9.636;2022-09-06T13:55:46;3.22;;;1.83;;
70850;SDS011;58475;49.662;9.636;2022-09-06T13:58:11;3.75;;;2.00;;
70850;SDS011;58475;49.662;9.636;2022-09-06T14:00:37;3.60;;;1.95;;
70850;SDS011;58475;49.662;9.636;2022-09-06T14:03:05;4.75;;;1.70;;
70850;SDS011;58475;49.662;9.636;2022-09-06T14:05:31;4.50;;;1.95;;
70850;SDS011;58475;49.662;9.636;2022-09-06T14:08:00;4.65;;;2.13;;
70850;SDS011;58475;49.662;9.636;2022-09-06T14:10:25;4.57;;;2.03;;
70850;SDS011;58475;49.662;9.636;2022-09-06T14:12:52;5.57;;;1.88;;
70850;SDS011;58475;49.662;9.636;2022-09-06T14:15:17;4.15;;;1.98;;
70850;SDS011;58475;49.662;9.636;2022-09-06T14:17:43;3.47;;;1.85;;
70850;SDS011;58475;49.662;9.636;2022-09-06T14:20:08;4.40;;;1.80;;
70850;SDS011;58475;49.662;9.636;2022-09-06T14:22:34;6.93;;;1.98;;
70850;SDS011;58475;49.662;9.636;2022-09-06T14:24:59;3.95;;;1.90;;
70850;SDS011;58475;49.662;9.636;2022-09-06T14:27:25;3.63;;;1.88;;
70850;SDS011;58475;49.662;9.636;2022-09-06T14:29:50;4.60;;;1.85;;
70850;SDS011;58475;49.662;9.636;2022-09-06T14:32:15;3.70;;;1.98;;
70850;SDS011;58475;49.662;9.636;2022-09-06T14:34:42;4.70;;;1.92;;
70850;SDS011;58475;49.662;9.636;2022-09-06T14:37:07;3.75;;;1.85;;
70850;SDS011;58475;49.662;9.636;2022-09-06T14:39:32;3.38;;;1.75;;
70850;SDS011;58475;49.662;9.636;2022-09-06T14:41:58;3.70;;;1.92;;
70850;SDS011;58475;49.662;9.636;2022-09-06T14:44:24;4.38;;;2.10;;
70850;SDS011;58475;49.662;9.636;2022-09-06T14:46:49;3.15;;;1.80;;
70850;SDS011;58475;49.662;9.636;2022-09-06T14:49:17;3.55;;;1.83;;
70850;SDS011;58475;49.662;9.636;2022-09-06T14:51:44;3.78;;;1.95;;
70850;SDS011;58475;49.662;9.636;2022-09-06T14:54:10;4.13;;;1.73;;
70850;SDS011;58475;49.662;9.636;2022-09-06T14:56:37;4.95;;;1.85;;
70850;SDS011;58475;49.662;9.636;2022-09-06T14:59:04;5.78;;;1.95;;
70850;SDS011;58475;49.662;9.636;2022-09-06T15:01:31;3.58;;;1.90;;
70850;SDS011;58475;49.662;9.636;2022-09-06T15:03:58;3.50;;;1.98;;
70850;SDS011;58475;49.662;9.636;2022-09-06T15:06:26;4.17;;;1.90;;
70850;SDS011;58475;49.662;9.636;2022-09-06T15:08:53;4.57;;;1.80;;
70850;SDS011;58475;49.662;9.636;2022-09-06T15:11:29;4.55;;;1.88;;
70850;SDS011;58475;49.662;9.636;2022-09-06T15:14:01;3.97;;;1.90;;
70850;SDS011;58475;49.662;9.636;2022-09-06T15:16:29;4.25;;;2.10;;
70850;SDS011;58475;49.662;9.636;2022-09-06T15:18:56;2.72;;;1.73;;
70850;SDS011;58475;49.662;9.636;2022-09-06T15:21:22;4.38;;;2.30;;
70850;SDS011;58475;49.662;9.636;2022-09-06T15:23:50;5.40;;;2.10;;
70850;SDS011;58475;49.662;9.636;2022-09-06T15:26:16;4.43;;;2.25;;
70850;SDS011;58475;49.662;9.636;2022-09-06T15:28:43;7.18;;;2.55;;
70850;SDS011;58475;49.662;9.636;2022-09-06T15:31:09;5.72;;;2.45;;
70850;SDS011;58475;49.662;9.636;2022-09-06T15:33:35;6.28;;;2.58;;
70850;SDS011;58475;49.662;9.636;2022-09-06T15:36:01;4.05;;;2.60;;
70850;SDS011;58475;49.662;9.636;2022-09-06T15:38:34;4.88;;;2.03;;
70850;SDS011;58475;49.662;9.636;2022-09-06T15:41:07;5.22;;;2.28;;
70850;SDS011;58475;49.662;9.636;2022-09-06T15:43:38;3.88;;;2.25;;
70850;SDS011;58475;49.662;9.636;2022-09-06T15:46:06;5.25;;;2.40;;
70850;SDS011;58475;49.662;9.636;2022-09-06T15:48:42;8.00;;;2.53;;
70850;SDS011;58475;49.662;9.636;2022-09-06T15:51:10;5.60;;;2.60;;
70850;SDS011;58475;49.662;9.636;2022-09-06T15:53:37;7.07;;;2.85;;
70850;SDS011;58475;49.662;9.636;2022-09-06T15:56:03;6.30;;;2.40;;
70850;SDS011;58475;49.662;9.636;2022-09-06T15:58:29;5.45;;;2.58;;
70850;SDS011;58475;49.662;9.636;2022-09-06T16:00:59;5.45;;;2.65;;
70850;SDS011;58475;49.662;9.636;2022-09-06T16:03:25;4.22;;;2.33;;
70850;SDS011;58475;49.662;9.636;2022-09-06T16:05:50;4.97;;;2.30;;
70850;SDS011;58475;49.662;9.636;2022-09-06T16:08:16;4.45;;;2.33;;
70850;SDS011;58475;49.662;9.636;2022-09-06T16:10:43;5.50;;;2.30;;
70850;SDS011;58475;49.662;9.636;2022-09-06T16:13:08;7.28;;;2.78;;
70850;SDS011;58475;49.662;9.636;2022-09-06T16:15:33;5.78;;;2.40;;
70850;SDS011;58475;49.662;9.636;2022-09-06T16:17:59;6.50;;;2.45;;
70850;SDS011;58475;49.662;9.636;2022-09-06T16:20:29;6.13;;;2.40;;
70850;SDS011;58475;49.662;9.636;2022-09-06T16:22:55;5.65;;;2.53;;
70850;SDS011;58475;49.662;9.636;2022-09-06T16:25:20;6.20;;;2.30;;
70850;SDS011;58475;49.662;9.636;2022-09-06T16:27:46;9.23;;;2.58;;
70850;SDS011;58475;49.662;9.636;2022-09-06T16:30:11;7.32;;;2.70;;
70850;SDS011;58475;49.662;9.636;2022-09-06T16:32:37;4.45;;;2.20;;
70850;SDS011;58475;49.662;9.636;2022-09-06T16:35:02;6.22;;;2.60;;
70850;SDS011;58475;49.662;9.636;2022-09-06T16:37:29;6.65;;;2.75;;
70850;SDS011;58475;49.662;9.636;2022-09-06T16:39:55;6.97;;;2.58;;
70850;SDS011;58475;49.662;9.636;2022-09-06T16:42:21;6.60;;;2.75;;
70850;SDS011;58475;49.662;9.636;2022-09-06T16:44:47;5.95;;;2.50;;
70850;SDS011;58475;49.662;9.636;2022-09-06T16:47:12;6.88;;;2.78;;
70850;SDS011;58475;49.662;9.636;2022-09-06T16:49:37;5.45;;;2.60;;
70850;SDS011;58475;49.662;9.636;2022-09-06T16:52:03;7.15;;;2.65;;